Flight Track Log - Related Links

Times and Time Zones

All times are in EDT time to prevent confusion due to time zone crossing. See the SKW4442 flight status page for this flight to view local times or setup timezone preferences in your user account.

Time Position Orientation Groundspeed Altitude Reporting Facility
EDT Latitude Longitude Course Direction KTS MPH feet Rate Location/Type
Fri 09:13:07 AM 42.2017 -83.3553 190° South 157 181 1,400  Level Cleveland Center
Fri 09:14:14 AM 42.1408 -83.3694 188° South 226 260 3,800 2,189 Climbing Cleveland Center
Fri 09:15:35 AM 42.0467 -83.3878 196° South 296 341 6,800 2,468 Climbing Cleveland Center
Fri 09:16:35 AM 41.9667 -83.4178 203° Southwest 288 331 9,600 2,300 Climbing Cleveland Center
Fri 09:17:35 AM 41.9031 -83.4542 200° South 288 331 11,400 2,150 Climbing Cleveland Center
Fri 09:18:35 AM 41.8103 -83.5000 201° Southwest 304 350 13,900 2,250 Climbing Cleveland Center
Fri 09:19:35 AM 41.7258 -83.5436 197° South 315 362 15,900 1,900 Climbing Cleveland Center
Fri 09:20:35 AM 41.6414 -83.5786 193° South 315 362 17,700 1,600 Climbing Cleveland Center
Fri 09:21:35 AM 41.5511 -83.6075 193° South 329 379 19,100 1,300 Climbing Cleveland Center
Fri 09:22:35 AM 41.4544 -83.6364 207° Southwest 343 395 20,300 1,050 Climbing Cleveland Center
Fri 09:23:35 AM 41.3653 -83.6958 207° Southwest 357 411 21,200 1,150 Climbing Cleveland Center
Fri 09:24:35 AM 41.2739 -83.7578 208° Southwest 363 418 22,600 1,200 Climbing Cleveland Center
Fri 09:25:35 AM 41.1781 -83.8247 210° Southwest 384 442 23,600 962 Climbing Cleveland Center
Fri 09:27:11 AM 41.0403 -83.9283 208° Southwest 377 434 25,100 846 Climbing Indianapolis Center
Fri 09:28:11 AM 40.9378 -83.9992 207° Southwest 386 444 25,800 750 Climbing Indianapolis Center
Fri 09:29:11 AM 40.8375 -84.0672 208° Southwest 394 453 26,600 650 Climbing Indianapolis Center
Fri 09:30:11 AM 40.7394 -84.1350 208° Southwest 399 459 27,100 600 Climbing Indianapolis Center
Fri 09:31:11 AM 40.6389 -84.2053 208° Southwest 405 466 27,800 550 Climbing Indianapolis Center
Fri 09:32:11 AM 40.5386 -84.2753 209° Southwest 410 472 28,200 500 Climbing Indianapolis Center
Fri 09:33:11 AM 40.4381 -84.3478 210° Southwest 415 478 28,800 550 Climbing Indianapolis Center
Fri 09:34:11 AM 40.3356 -84.4256 209° Southwest 420 483 29,300 500 Climbing Indianapolis Center
Fri 09:35:11 AM 40.2347 -84.4978 204° Southwest 420 483 29,800 350 Climbing Indianapolis Center
Fri 09:36:11 AM 40.1258 -84.5614 201° Southwest 432 497 30,000 100 Climbing Indianapolis Center
Fri 09:37:11 AM 40.0169 -84.6169 202° Southwest 432 497 30,000  Level Indianapolis Center
Fri 09:38:11 AM 39.9061 -84.6747 202° Southwest 424 488 30,000  Level Indianapolis Center
Fri 09:39:11 AM 39.7992 -84.7297 202° Southwest 424 488 30,000  Level Indianapolis Center
Fri 09:40:11 AM 39.6922 -84.7847 201° Southwest 419 482 30,000  Level Indianapolis Center
Fri 09:41:11 AM 39.5833 -84.8394 200° South 414 476 30,000  Level Indianapolis Center
Fri 09:42:11 AM 39.4764 -84.8911 202° Southwest 414 476 30,000  Level Indianapolis Center
Fri 09:43:11 AM 39.3714 -84.9456 202° Southwest 420 483 30,000  Level Indianapolis Center
Fri 09:44:11 AM 39.2603 -85.0025 201° Southwest 420 483 30,000  Level Indianapolis Center
Fri 09:45:11 AM 39.1492 -85.0564 202° Southwest 420 483 30,000  Level Indianapolis Center
Fri 09:46:11 AM 39.0419 -85.1131 201° Southwest 415 478 30,000  Level Indianapolis Center
Fri 09:47:11 AM 38.9350 -85.1669 201° Southwest 420 483 30,000  Level Indianapolis Center
Fri 09:48:11 AM 38.8236 -85.2231 200° South 420 483 30,000  Level Indianapolis Center
Fri 09:49:11 AM 38.7083 -85.2761 202° Southwest 420 483 30,000  Level Indianapolis Center
Fri 09:50:11 AM 38.6053 -85.3294 201° Southwest 426 490 30,000  Level Indianapolis Center
Fri 09:51:11 AM 38.4958 -85.3825 200° South 421 484 30,000 -250 Level Indianapolis Center
Fri 09:52:11 AM 38.3825 -85.4356 202° Southwest 421 484 29,500 -750 Descending Indianapolis Center
Fri 09:53:11 AM 38.2711 -85.4933 202° Southwest 426 490 28,500 -1,000 Descending Indianapolis Center
Fri 09:54:11 AM 38.1511 -85.5536 192° South 438 504 27,500 -1,000 Descending Indianapolis Center
Fri 09:55:11 AM 38.0275 -85.5872 186° South 449 517 26,500 -1,000 Descending Indianapolis Center
Fri 09:56:11 AM 37.9042 -85.6047 186° South 454 522 25,500 -1,000 Descending Indianapolis Center
Fri 09:57:11 AM 37.7786 -85.6225 187° South 459 528 24,500 -1,310 Descending Indianapolis Center
Fri 09:59:05 AM 37.5469 -85.6594 186° South 441 507 21,700 -1,552 Descending Memphis Center
Fri 10:00:05 AM 37.4331 -85.6742 186° South 430 495 20,000 -850 Descending Memphis Center
Fri 10:01:05 AM 37.3189 -85.6886 193° South 418 481 20,000 -450 Level Memphis Center
Fri 10:02:05 AM 37.2078 -85.7211 196° South 418 481 19,100 -1,150 Descending Memphis Center
Fri 10:03:05 AM 37.0947 -85.7617 195° South 424 488 17,700 -1,400 Descending Memphis Center
Fri 10:04:05 AM 36.9856 -85.7992 197° South 417 480 16,300 -1,200 Descending Memphis Center
Fri 10:05:05 AM 36.8953 -85.8328 195° South 406 467 15,300 -1,050 Descending Memphis Center
Fri 10:06:05 AM 36.7861 -85.8700 196° South 406 467 14,200 -1,100 Descending Memphis Center
Fri 10:07:05 AM 36.6811 -85.9069 195° South 396 456 13,100 -1,100 Descending Memphis Center
Fri 10:08:05 AM 36.5803 -85.9408 200° South 389 448 12,000 -1,000 Descending Memphis Center
Fri 10:09:05 AM 36.4839 -85.9850 240° Southwest 378 435 11,100 -450 Descending Memphis Center
Fri 10:10:05 AM 36.4392 -86.0828 249° West 315 362 11,100 -550 Level Memphis Center
Fri 10:11:05 AM 36.4092 -86.1797 246° West 300 345 10,000 -1,350 Descending Memphis Center
Fri 10:12:05 AM 36.3769 -86.2717 248° West 300 345 8,400 -1,550 Descending Memphis Center
Fri 10:13:05 AM 36.3483 -86.3581 247° West 290 334 6,900 -1,500 Descending Memphis Center
Fri 10:14:05 AM 36.3197 -86.4419 247° West 277 319 5,400 -1,500 Descending Memphis Center
Fri 10:15:05 AM 36.2911 -86.5256 249° West 277 319 3,900 -1,350 Descending Memphis Center
Fri 10:16:05 AM 36.2664 -86.6039 219° Southwest 263 303 2,700 -900 Descending Memphis Center
Fri 10:17:05 AM 36.2239 -86.6472 197° South 240 276 2,100 -500 Descending Memphis Center
Fri 10:18:05 AM 36.1786 -86.6647 194° South 193 222 1,700 -650 Descending Memphis Center
Fri 10:19:05 AM 36.1394 -86.6767 207° Southwest 159 183 800 4,650 Descending Memphis Center
Fri 10:20:05 AM 36.0944 -86.7044 204° Southwest 159 183 11,000 5,100 Climbing Memphis Center
Fri 10:21:05 AM 36.0533 -86.7267 204° Southwest 159 183 11,000  Level Memphis Center

Login

Don't have an account? Register now (free) for customized features, flight alerts, and more!